Time;durP1;ratioP1;P1;durP2;ratioP2;P2;SDS_P1;SDS_P2;PMS_P1;PMS_P2;Temp;Humidity;BMP_temperature;BMP_pressure;BME280_temperature;BME280_humidity;BME280_pressure;Samples;Min_cycle;Max_cycle;Signal;HPM_P1;HPM_P2
2022/04/10 00:02:04;;;;;;;14.05;2.40;;;13.20;99.90;;;;;;5033998;28;20113;-73
2022/04/10 00:04:30;;;;;;;15.38;3.10;;;13.10;99.90;;;;;;4998881;28;20053;-73
2022/04/10 00:06:57;;;;;;;13.25;3.30;;;13.00;99.90;;;;;;4996314;28;20037;-72
2022/04/10 00:09:23;;;;;;;20.50;3.60;;;13.10;99.90;;;;;;5015099;28;20042;-73
2022/04/10 00:11:50;;;;;;;16.23;3.05;;;13.10;99.90;;;;;;5033239;28;20037;-73
2022/04/10 00:14:15;;;;;;;16.08;2.92;;;13.10;99.90;;;;;;5015582;28;20034;-72
2022/04/10 00:16:41;;;;;;;16.27;3.22;;;13.10;99.90;;;;;;5013624;28;20886;-73
2022/04/10 00:19:07;;;;;;;19.02;3.22;;;13.00;99.90;;;;;;5030932;28;20029;-72
2022/04/10 00:21:33;;;;;;;13.30;3.25;;;13.00;99.90;;;;;;5002476;28;20111;-72
2022/04/10 00:24:00;;;;;;;12.75;2.80;;;13.10;99.90;;;;;;5017303;28;20042;-72
2022/04/10 00:26:26;;;;;;;18.27;2.88;;;13.00;99.90;;;;;;4995190;28;20040;-73
2022/04/10 00:28:53;;;;;;;14.02;3.10;;;13.10;99.90;;;;;;5023692;28;20037;-72
2022/04/10 00:31:20;;;;;;;17.08;3.67;;;13.20;99.90;;;;;;4990181;28;20038;-71
2022/04/10 00:33:46;;;;;;;14.30;3.63;;;13.20;99.90;;;;;;5030903;28;20048;-73
2022/04/10 00:36:13;;;;;;;14.80;3.10;;;13.10;99.90;;;;;;5002394;28;20029;-72
2022/04/10 00:38:38;;;;;;;17.63;3.28;;;13.10;99.90;;;;;;5004021;28;20124;-74
2022/04/10 00:41:05;;;;;;;14.68;3.47;;;13.10;99.90;;;;;;5018365;28;20541;-71
2022/04/10 00:43:34;;;;;;;17.58;3.10;;;13.00;99.90;;;;;;5019209;28;20053;-73
2022/04/10 00:46:01;;;;;;;11.98;2.72;;;13.00;99.90;;;;;;5016411;28;20034;-72
2022/04/10 00:48:27;;;;;;;19.23;3.05;;;13.00;99.90;;;;;;5019279;28;20044;-73
2022/04/10 00:53:39;;;;;;;12.07;2.67;;;13.00;99.90;;;;;;5018847;28;20052;-72
2022/04/10 00:56:06;;;;;;;15.02;2.88;;;13.00;99.90;;;;;;5016894;28;20509;-72
2022/04/10 00:58:32;;;;;;;15.35;3.28;;;13.00;99.90;;;;;;5002932;28;20415;-72
2022/04/10 01:00:58;;;;;;;16.02;2.83;;;12.90;99.90;;;;;;5023307;28;20121;-71
2022/04/10 01:03:25;;;;;;;15.93;2.72;;;12.90;99.90;;;;;;5000622;28;20547;-72
2022/04/10 01:05:52;;;;;;;13.88;2.95;;;12.90;99.90;;;;;;5037066;28;20685;-70
2022/04/10 01:08:19;;;;;;;13.95;2.50;;;13.00;99.90;;;;;;5035053;28;20026;-72
2022/04/10 01:10:45;;;;;;;16.75;2.80;;;12.90;99.90;;;;;;5019090;28;20033;-72
2022/04/10 01:13:11;;;;;;;17.20;2.80;;;13.00;99.90;;;;;;5032595;28;20412;-72
2022/04/10 01:15:38;;;;;;;20.00;2.58;;;12.90;99.90;;;;;;5018307;28;20117;-72
2022/04/10 01:18:06;;;;;;;17.73;2.72;;;12.90;99.90;;;;;;5000193;28;20099;-73
2022/04/10 01:20:32;;;;;;;17.88;2.90;;;12.90;99.90;;;;;;5033822;28;20950;-73
2022/04/10 01:22:59;;;;;;;24.13;3.58;;;12.80;99.90;;;;;;5021467;28;20052;-72
2022/04/10 01:25:26;;;;;;;17.88;2.83;;;12.80;99.90;;;;;;5008511;28;20531;-72
2022/04/10 01:27:52;;;;;;;14.85;3.08;;;12.80;99.90;;;;;;5024919;28;20037;-72
2022/04/10 01:30:18;;;;;;;16.00;3.05;;;12.80;99.90;;;;;;5016201;28;20489;-73
2022/04/10 01:32:44;;;;;;;14.57;2.92;;;12.80;99.90;;;;;;5037022;28;20045;-72
2022/04/10 01:35:10;;;;;;;17.15;3.25;;;12.70;99.90;;;;;;5015841;28;20037;-73
2022/04/10 01:37:39;;;;;;;11.50;2.80;;;12.70;99.90;;;;;;5018265;28;20038;-73
2022/04/10 01:40:05;;;;;;;11.88;2.15;;;12.60;99.90;;;;;;5018519;28;20056;-72
2022/04/10 01:42:32;;;;;;;9.68;2.50;;;12.70;99.90;;;;;;5018272;28;20053;-72
2022/04/10 01:44:58;;;;;;;13.50;2.63;;;12.60;99.90;;;;;;5018042;28;20527;-72
2022/04/10 01:47:24;;;;;;;17.67;3.20;;;12.60;99.90;;;;;;5005887;28;20066;-73
2022/04/10 01:49:51;;;;;;;11.02;2.60;;;12.70;99.90;;;;;;5031030;28;20040;-72
2022/04/10 01:52:17;;;;;;;14.30;2.80;;;12.60;99.90;;;;;;5019424;28;20047;-73
2022/04/10 01:54:42;;;;;;;16.73;2.60;;;12.70;99.90;;;;;;5016736;28;20512;-72
2022/04/10 01:57:10;;;;;;;14.27;2.92;;;12.70;99.90;;;;;;5003677;28;20037;-72
2022/04/10 01:59:36;;;;;;;12.13;2.70;;;12.60;99.90;;;;;;5021684;28;20511;-73
2022/04/10 02:02:02;;;;;;;17.83;2.50;;;12.70;99.90;;;;;;5019309;28;20040;-73
2022/04/10 02:04:29;;;;;;;14.65;3.13;;;12.70;99.90;;;;;;5032458;28;20038;-72
2022/04/10 02:06:55;;;;;;;15.65;2.97;;;12.60;99.90;;;;;;5033861;28;20255;-72
2022/04/10 02:09:21;;;;;;;14.90;2.40;;;12.60;99.90;;;;;;4998228;28;20681;-73
2022/04/10 02:11:47;;;;;;;18.42;3.05;;;12.60;99.90;;;;;;5018739;28;20398;-73
2022/04/10 02:14:13;;;;;;;11.10;2.10;;;12.60;99.90;;;;;;5028593;28;20038;-73
2022/04/10 02:16:39;;;;;;;13.38;2.38;;;12.50;99.90;;;;;;5034139;28;20045;-73
2022/04/10 02:19:05;;;;;;;15.18;2.83;;;12.40;99.90;;;;;;5020122;28;20034;-72
2022/04/10 02:21:31;;;;;;;12.30;2.53;;;12.40;99.90;;;;;;5017880;28;20038;-72
2022/04/10 02:23:57;;;;;;;12.88;2.95;;;12.40;99.90;;;;;;5034336;28;20369;-73
2022/04/10 02:26:23;;;;;;;12.88;3.25;;;12.40;99.90;;;;;;5016616;28;20634;-72
2022/04/10 02:28:48;;;;;;;17.10;2.88;;;12.40;99.90;;;;;;5031597;28;20102;-72
2022/04/10 02:31:15;;;;;;;15.20;2.85;;;12.30;99.90;;;;;;5034478;28;20671;-73
2022/04/10 02:33:41;;;;;;;12.35;2.28;;;12.30;99.90;;;;;;5020390;28;20053;-72
2022/04/10 02:36:07;;;;;;;17.75;3.55;;;12.20;99.90;;;;;;5019617;28;20049;-72
2022/04/10 02:38:35;;;;;;;13.63;2.85;;;12.20;99.90;;;;;;5020779;28;20038;-72
2022/04/10 02:41:01;;;;;;;11.35;2.67;;;12.10;99.90;;;;;;5018130;28;20038;-72
2022/04/10 02:43:27;;;;;;;15.88;2.63;;;12.20;99.90;;;;;;5018264;28;20091;-73
2022/04/10 02:45:52;;;;;;;13.07;2.50;;;12.20;99.90;;;;;;5031773;28;20042;-73
2022/04/10 02:48:18;;;;;;;12.18;2.20;;;12.10;99.90;;;;;;5019942;28;20053;-72
2022/04/10 02:50:46;;;;;;;12.15;2.33;;;12.10;99.90;;;;;;5014362;28;20036;-72
2022/04/10 02:53:13;;;;;;;12.93;2.60;;;12.10;99.90;;;;;;5019625;28;20057;-73
2022/04/10 02:55:38;;;;;;;17.77;2.75;;;12.00;99.90;;;;;;5014895;28;20038;-73
2022/04/10 02:58:05;;;;;;;12.57;2.65;;;12.00;99.90;;;;;;5018531;28;20489;-73
2022/04/10 03:00:32;;;;;;;13.20;2.58;;;12.00;99.90;;;;;;5000277;28;20037;-73
2022/04/10 03:02:58;;;;;;;14.88;2.25;;;12.00;99.90;;;;;;5020078;28;20084;-72
2022/04/10 03:05:25;;;;;;;15.38;2.20;;;12.10;99.90;;;;;;5015502;28;20170;-73
2022/04/10 03:07:51;;;;;;;16.00;2.50;;;12.10;99.90;;;;;;5017746;28;20034;-72
2022/04/10 03:10:17;;;;;;;11.43;3.15;;;12.20;99.90;;;;;;5031102;28;20037;-72
2022/04/10 03:12:43;;;;;;;12.25;2.70;;;12.20;99.90;;;;;;5016549;28;20400;-72
2022/04/10 03:15:09;;;;;;;13.20;2.95;;;12.20;99.90;;;;;;5028928;28;20041;-73
2022/04/10 03:17:35;;;;;;;14.80;2.60;;;12.20;99.90;;;;;;5015651;28;20045;-73
2022/04/10 03:20:01;;;;;;;11.88;2.40;;;12.10;99.90;;;;;;5003292;28;20034;-72
2022/04/10 03:22:27;;;;;;;17.35;2.75;;;12.00;99.90;;;;;;5017364;28;20048;-71
2022/04/10 03:24:52;;;;;;;12.25;3.10;;;12.00;99.90;;;;;;5034457;28;20079;-71
2022/04/10 03:27:18;;;;;;;13.60;2.10;;;12.00;99.90;;;;;;5016034;28;20040;-71
2022/04/10 03:29:45;;;;;;;16.15;2.95;;;12.00;99.90;;;;;;5032299;28;20389;-72
2022/04/10 03:32:10;;;;;;;14.57;2.17;;;11.90;99.90;;;;;;5019461;28;20042;-70
2022/04/10 03:34:36;;;;;;;16.88;3.00;;;11.90;99.90;;;;;;5031534;28;20052;-71
2022/04/10 03:37:03;;;;;;;10.02;2.40;;;11.90;99.90;;;;;;5028663;28;20046;-71
2022/04/10 03:39:29;;;;;;;15.23;2.92;;;11.90;99.90;;;;;;5037005;28;20057;-72
2022/04/10 03:41:55;;;;;;;17.70;2.30;;;11.90;99.90;;;;;;5019344;28;20038;-71
2022/04/10 03:44:20;;;;;;;15.02;2.53;;;11.90;99.90;;;;;;5031258;28;20030;-71
2022/04/10 03:46:46;;;;;;;12.35;2.63;;;11.80;99.90;;;;;;5032495;28;20056;-71
2022/04/10 03:49:12;;;;;;;13.02;2.47;;;11.80;99.90;;;;;;5016925;28;20400;-71
2022/04/10 03:51:38;;;;;;;16.55;2.40;;;11.80;99.90;;;;;;5017063;28;20033;-71
2022/04/10 03:54:04;;;;;;;12.90;1.95;;;11.90;99.90;;;;;;4996548;28;20049;-71
2022/04/10 03:56:31;;;;;;;10.20;2.53;;;11.90;99.90;;;;;;4999421;28;20037;-71
2022/04/10 03:58:57;;;;;;;15.80;3.00;;;11.90;99.90;;;;;;5001597;28;20029;-71
2022/04/10 04:01:23;;;;;;;13.15;2.20;;;11.80;99.90;;;;;;5030423;28;20465;-71
2022/04/10 04:03:50;;;;;;;13.05;2.40;;;11.90;99.90;;;;;;5031373;28;20038;-70
2022/04/10 04:06:15;;;;;;;14.98;2.58;;;11.90;99.90;;;;;;5016651;28;20034;-72
2022/04/10 04:08:42;;;;;;;14.32;2.30;;;11.80;99.90;;;;;;5019393;28;20083;-71
2022/04/10 04:11:09;;;;;;;11.38;2.30;;;11.90;99.90;;;;;;5019724;28;20040;-70
2022/04/10 04:13:40;;;;;;;12.13;1.90;;;12.00;99.90;;;;;;5037131;28;20470;-71
2022/04/10 04:16:07;;;;;;;12.57;2.60;;;12.00;99.90;;;;;;5033933;28;20440;-70
2022/04/10 04:18:34;;;;;;;15.05;3.00;;;12.10;99.90;;;;;;5012197;28;20046;-71
2022/04/10 04:21:01;;;;;;;13.75;2.40;;;12.20;99.90;;;;;;5021278;28;20573;-72
2022/04/10 04:23:29;;;;;;;15.32;2.78;;;12.30;99.90;;;;;;5019481;28;20511;-70
2022/04/10 04:25:55;;;;;;;12.50;2.80;;;12.30;99.90;;;;;;5005159;28;20044;-70
2022/04/10 04:28:22;;;;;;;12.75;2.80;;;12.40;99.90;;;;;;5002208;28;20528;-71
2022/04/10 04:30:48;;;;;;;13.13;2.60;;;12.50;99.90;;;;;;5021082;28;20041;-73
2022/04/10 04:33:16;;;;;;;12.90;2.60;;;12.50;99.90;;;;;;5017983;28;20037;-71
2022/04/10 04:35:42;;;;;;;16.65;2.97;;;12.50;99.90;;;;;;5036333;28;20041;-73
2022/04/10 04:38:08;;;;;;;15.65;2.72;;;12.60;99.90;;;;;;5016412;28;20358;-71
2022/04/10 04:40:34;;;;;;;12.13;2.20;;;12.60;99.90;;;;;;5017780;28;20045;-71
2022/04/10 04:43:00;;;;;;;13.63;2.58;;;12.60;99.90;;;;;;5033564;28;20050;-72
2022/04/10 04:45:26;;;;;;;14.98;2.72;;;12.70;99.90;;;;;;5020530;28;20490;-71
2022/04/10 04:47:52;;;;;;;17.98;2.30;;;12.70;99.90;;;;;;5020601;28;20092;-70
2022/04/10 04:50:18;;;;;;;15.95;2.85;;;12.70;99.90;;;;;;5017323;28;20481;-70
2022/04/10 04:52:44;;;;;;;14.80;2.92;;;12.60;99.90;;;;;;5005392;28;20044;-70
2022/04/10 04:55:11;;;;;;;13.85;2.47;;;12.70;99.90;;;;;;5023619;28;20049;-71
2022/04/10 04:57:38;;;;;;;14.75;2.75;;;12.60;99.90;;;;;;5038615;28;20034;-70
2022/04/10 05:00:05;;;;;;;12.00;2.50;;;12.60;99.90;;;;;;5019818;28;20049;-71
2022/04/10 05:02:31;;;;;;;14.13;2.55;;;12.70;99.90;;;;;;5029758;28;20597;-71
2022/04/10 05:04:57;;;;;;;14.23;2.63;;;12.60;99.90;;;;;;5022717;28;20061;-71
2022/04/10 05:07:23;;;;;;;13.05;2.30;;;12.60;99.90;;;;;;4998230;28;20033;-71
2022/04/10 05:09:49;;;;;;;10.27;2.95;;;12.50;99.90;;;;;;5019263;28;20045;-71
2022/04/10 05:12:16;;;;;;;11.90;2.05;;;12.50;99.90;;;;;;5004413;28;20037;-71
2022/04/10 05:14:43;;;;;;;10.25;2.95;;;12.50;99.90;;;;;;5004446;28;20128;-71
2022/04/10 05:17:08;;;;;;;13.75;2.58;;;12.50;99.90;;;;;;5008664;28;20034;-70
2022/04/10 05:19:34;;;;;;;12.82;2.40;;;12.50;99.90;;;;;;5032610;28;20043;-71
2022/04/10 05:22:01;;;;;;;17.40;2.60;;;12.60;99.90;;;;;;5031169;28;20041;-70
2022/04/10 05:24:27;;;;;;;11.63;2.47;;;12.60;99.90;;;;;;5020540;28;20120;-71
2022/04/10 05:26:54;;;;;;;14.25;2.45;;;12.60;99.90;;;;;;5030288;28;20042;-71
2022/04/10 05:29:21;;;;;;;16.33;2.55;;;12.60;99.90;;;;;;5018760;28;20042;-70
2022/04/10 05:31:47;;;;;;;10.50;2.35;;;12.60;99.90;;;;;;5019373;28;20504;-71
2022/04/10 05:34:14;;;;;;;11.70;2.70;;;12.70;99.90;;;;;;5000533;28;20160;-71
2022/04/10 05:36:40;;;;;;;15.73;2.67;;;12.80;99.90;;;;;;5020303;28;20040;-70
2022/04/10 05:39:06;;;;;;;12.02;2.47;;;12.80;99.90;;;;;;5021090;28;20041;-70
2022/04/10 05:41:33;;;;;;;13.77;2.60;;;12.80;99.90;;;;;;4998974;28;20362;-71
2022/04/10 05:43:59;;;;;;;14.23;2.53;;;12.70;99.90;;;;;;5020011;28;20045;-71
2022/04/10 05:46:26;;;;;;;12.50;2.25;;;12.70;99.90;;;;;;4999199;28;20053;-70
2022/04/10 05:48:52;;;;;;;12.05;2.15;;;12.70;99.90;;;;;;5030315;28;20047;-70
2022/04/10 05:51:17;;;;;;;15.23;2.33;;;12.70;99.90;;;;;;4998862;28;20150;-71
2022/04/10 05:53:44;;;;;;;14.50;2.20;;;12.80;99.90;;;;;;5020660;28;20671;-71
2022/04/10 05:56:10;;;;;;;19.77;2.90;;;12.80;99.90;;;;;;5030428;28;21280;-71
2022/04/10 05:58:35;;;;;;;15.60;2.50;;;12.80;99.90;;;;;;5018683;28;20061;-71
2022/04/10 06:01:02;;;;;;;15.70;2.80;;;12.80;99.90;;;;;;5032941;28;20046;-70
2022/04/10 06:03:27;;;;;;;15.93;3.35;;;12.80;99.90;;;;;;5015658;28;20037;-70
2022/04/10 06:05:54;;;;;;;10.07;2.63;;;12.90;99.90;;;;;;5031181;28;20397;-70
2022/04/10 06:08:20;;;;;;;14.60;3.15;;;12.80;99.90;;;;;;4998288;28;20588;-70
2022/04/10 06:10:45;;;;;;;15.65;2.67;;;12.90;99.90;;;;;;5020256;28;20117;-70
2022/04/10 06:13:12;;;;;;;12.80;2.63;;;12.90;99.90;;;;;;5019044;28;20422;-71
2022/04/10 06:15:38;;;;;;;13.63;2.78;;;12.90;99.90;;;;;;5035984;28;20043;-72
2022/04/10 06:18:04;;;;;;;13.95;2.60;;;12.90;99.90;;;;;;5019324;28;20065;-70
2022/04/10 06:20:30;;;;;;;11.60;2.55;;;13.00;99.90;;;;;;5021343;28;20044;-70
2022/04/10 06:22:56;;;;;;;12.00;1.92;;;13.10;99.90;;;;;;5017856;28;20080;-71
2022/04/10 06:25:23;;;;;;;15.82;2.67;;;13.10;99.90;;;;;;5027978;28;20147;-72
2022/04/10 06:27:49;;;;;;;13.73;2.20;;;13.00;99.90;;;;;;5001678;28;20128;-71
2022/04/10 06:30:15;;;;;;;18.55;3.08;;;13.10;99.90;;;;;;5015639;28;20044;-72
2022/04/10 06:32:41;;;;;;;13.63;2.38;;;13.10;99.90;;;;;;5034664;28;20049;-71
2022/04/10 06:35:08;;;;;;;16.58;2.35;;;13.10;99.90;;;;;;5030399;28;20064;-71
2022/04/10 06:37:35;;;;;;;11.90;2.20;;;13.10;99.90;;;;;;5034150;28;20064;-71
2022/04/10 06:40:02;;;;;;;16.98;2.72;;;13.10;99.90;;;;;;5019498;28;20552;-70
2022/04/10 06:42:28;;;;;;;14.88;3.17;;;13.20;99.90;;;;;;5013752;28;20046;-71
2022/04/10 06:44:54;;;;;;;11.50;2.20;;;13.20;99.90;;;;;;5002207;28;20068;-71
2022/04/10 06:47:20;;;;;;;13.18;2.63;;;13.20;99.90;;;;;;5019377;28;20033;-70
2022/04/10 06:49:46;;;;;;;15.93;2.78;;;13.20;99.90;;;;;;5019514;28;20118;-70
2022/04/10 06:52:12;;;;;;;17.95;3.20;;;13.30;99.90;;;;;;5015827;28;20050;-70
2022/04/10 06:54:38;;;;;;;14.90;2.53;;;13.20;99.90;;;;;;4999685;28;20527;-71
2022/04/10 06:57:04;;;;;;;15.52;2.67;;;13.30;99.90;;;;;;5036342;28;20159;-71
2022/04/10 06:59:30;;;;;;;17.48;2.55;;;13.30;99.90;;;;;;5032464;28;20434;-71
2022/04/10 07:01:56;;;;;;;18.30;2.92;;;13.40;99.90;;;;;;5035423;28;20136;-70
2022/04/10 07:04:22;;;;;;;12.00;2.88;;;13.20;99.90;;;;;;5002996;28;20099;-72
2022/04/10 07:06:50;;;;;;;11.32;2.33;;;13.30;99.90;;;;;;5017715;28;20041;-71
2022/04/10 07:09:16;;;;;;;11.77;2.22;;;13.10;99.90;;;;;;5011754;28;20263;-71
2022/04/10 07:11:42;;;;;;;13.10;2.28;;;13.10;99.90;;;;;;5017212;28;20034;-72
2022/04/10 07:14:09;;;;;;;10.88;2.33;;;13.10;99.90;;;;;;5000637;28;20374;-71
2022/04/10 07:16:35;;;;;;;19.92;2.88;;;13.20;99.90;;;;;;5016140;28;20030;-70
2022/04/10 07:19:01;;;;;;;15.85;2.53;;;13.10;99.90;;;;;;5018460;28;20548;-71
2022/04/10 07:24:13;;;;;;;11.85;2.40;;;13.20;99.90;;;;;;5016095;28;20048;-72
2022/04/10 07:26:39;;;;;;;16.30;2.78;;;13.20;99.90;;;;;;5019679;28;20040;-70
2022/04/10 07:29:05;;;;;;;16.20;2.70;;;13.10;99.90;;;;;;5017591;28;20041;-72
2022/04/10 07:31:31;;;;;;;19.33;3.30;;;13.10;99.90;;;;;;5019514;28;20041;-72
2022/04/10 07:33:57;;;;;;;11.23;2.05;;;13.10;99.90;;;;;;5016848;28;20556;-72
2022/04/10 07:36:23;;;;;;;15.43;2.83;;;13.30;99.90;;;;;;5030377;28;20045;-71
2022/04/10 07:38:49;;;;;;;15.85;3.08;;;13.30;99.90;;;;;;5014796;28;20184;-71
2022/04/10 07:41:15;;;;;;;22.85;2.80;;;13.20;99.90;;;;;;5030000;28;20029;-72
2022/04/10 07:43:41;;;;;;;13.38;2.60;;;13.20;99.90;;;;;;5021758;28;20036;-71
2022/04/10 07:48:53;;;;;;;12.27;2.47;;;13.40;99.90;;;;;;5022734;28;20381;-71
2022/04/10 07:51:19;;;;;;;13.55;2.88;;;13.40;99.90;;;;;;5000325;28;20030;-73
2022/04/10 07:53:46;;;;;;;11.70;1.80;;;13.60;99.90;;;;;;5036662;28;20446;-72
2022/04/10 07:56:11;;;;;;;10.95;3.08;;;13.60;99.90;;;;;;5033487;28;20110;-73
2022/04/10 07:58:37;;;;;;;12.10;2.72;;;13.70;99.90;;;;;;5038825;28;20180;-71
2022/04/10 08:01:03;;;;;;;11.93;2.17;;;13.70;99.90;;;;;;4999777;28;20117;-72
2022/04/10 08:03:30;;;;;;;13.65;2.72;;;13.70;99.90;;;;;;5005258;28;20034;-71
2022/04/10 08:05:56;;;;;;;15.80;2.83;;;13.70;99.90;;;;;;5034978;28;20102;-71
2022/04/10 08:08:22;;;;;;;8.13;2.47;;;13.80;99.90;;;;;;5029537;28;20084;-71
2022/04/10 08:10:48;;;;;;;12.60;2.72;;;13.80;99.90;;;;;;5034022;28;20045;-72
2022/04/10 08:13:15;;;;;;;11.30;2.45;;;13.80;99.90;;;;;;5027666;28;20049;-71
2022/04/10 08:15:41;;;;;;;11.77;2.67;;;13.90;99.90;;;;;;5002307;28;20037;-71
2022/04/10 08:18:08;;;;;;;12.57;2.50;;;13.90;99.90;;;;;;5007890;28;20053;-72
2022/04/10 08:20:36;;;;;;;14.00;2.95;;;14.00;99.90;;;;;;4999066;28;20400;-71
2022/04/10 08:23:02;;;;;;;10.50;2.50;;;13.90;99.90;;;;;;5022602;28;20046;-72
2022/04/10 08:25:28;;;;;;;10.30;2.50;;;13.80;99.90;;;;;;5002594;28;20051;-72
2022/04/10 08:27:55;;;;;;;13.80;2.58;;;14.00;99.90;;;;;;5006425;28;20505;-70
2022/04/10 08:30:22;;;;;;;12.73;2.53;;;14.00;99.90;;;;;;5001147;28;20183;-72
2022/04/10 08:32:48;;;;;;;16.67;3.25;;;14.00;99.90;;;;;;5003451;28;20052;-72
2022/04/10 08:35:15;;;;;;;14.95;2.97;;;14.00;99.90;;;;;;5009226;28;20464;-72
2022/04/10 08:37:41;;;;;;;13.13;2.75;;;14.20;99.90;;;;;;5004106;28;20042;-70
2022/04/10 08:40:08;;;;;;;14.40;2.80;;;14.30;99.90;;;;;;5023117;28;20154;-71
2022/04/10 08:42:34;;;;;;;7.55;2.10;;;14.50;99.90;;;;;;5035928;28;20099;-71
2022/04/10 08:45:00;;;;;;;10.55;2.65;;;14.40;99.90;;;;;;5034260;28;20490;-72
2022/04/10 08:47:27;;;;;;;13.10;1.95;;;14.70;99.90;;;;;;5017825;28;20040;-71
2022/04/10 08:49:54;;;;;;;10.35;2.05;;;14.60;99.90;;;;;;5022113;28;20096;-71
2022/04/10 08:52:21;;;;;;;13.73;2.35;;;14.50;99.90;;;;;;5035616;28;20037;-71
2022/04/10 08:54:49;;;;;;;13.98;2.92;;;14.50;99.90;;;;;;5022656;28;20053;-71
2022/04/10 08:57:15;;;;;;;13.70;2.50;;;14.40;99.90;;;;;;5020337;28;20053;-72
2022/04/10 08:59:42;;;;;;;14.07;3.45;;;14.30;99.90;;;;;;5001113;28;20041;-73
2022/04/10 09:02:10;;;;;;;14.45;3.15;;;14.30;99.90;;;;;;5005635;28;20129;-72
2022/04/10 09:04:37;;;;;;;18.30;3.00;;;14.30;99.90;;;;;;5019949;28;20046;-72
2022/04/10 09:07:04;;;;;;;15.13;3.45;;;14.10;99.90;;;;;;5038114;28;20041;-72
2022/04/10 09:09:32;;;;;;;13.45;3.15;;;14.00;99.90;;;;;;5003144;28;20048;-73
2022/04/10 09:11:59;;;;;;;10.48;3.30;;;14.10;99.90;;;;;;4998355;28;20145;-71
2022/04/10 09:14:28;;;;;;;14.05;2.90;;;14.10;99.90;;;;;;5031608;28;20042;-72
2022/04/10 09:17:15;;;;;;;8.75;1.92;;;14.20;99.90;;;;;;5019544;28;20060;-72
2022/04/10 09:19:51;;;;;;;8.73;2.13;;;14.50;99.90;;;;;;5035891;28;20381;-72
2022/04/10 09:22:37;;;;;;;7.63;2.10;;;14.60;99.90;;;;;;5032974;28;20038;-72
2022/04/10 09:25:17;;;;;;;10.05;2.13;;;15.10;99.90;;;;;;5017916;28;20041;-71
2022/04/10 09:27:45;;;;;;;8.20;2.05;;;15.80;99.90;;;;;;5034944;28;20069;-72
2022/04/10 09:30:16;;;;;;;8.32;2.05;;;15.90;99.90;;;;;;5017013;28;20144;-71
2022/04/10 09:32:53;;;;;;;7.05;2.00;;;16.00;99.90;;;;;;5020933;28;20033;-73
2022/04/10 09:35:22;;;;;;;10.63;1.88;;;16.60;99.90;;;;;;5016699;28;20159;-71
2022/04/10 09:37:56;;;;;;;8.18;2.00;;;16.80;99.90;;;;;;5021419;28;20046;-72
2022/04/10 09:40:26;;;;;;;5.25;1.30;;;16.70;99.90;;;;;;5014925;28;20103;-72
2022/04/10 09:42:59;;;;;;;8.75;1.60;;;16.00;99.90;;;;;;5017895;28;20064;-71
2022/04/10 09:45:28;;;;;;;;;;;16.20;99.90;;;;;;5000142;28;20064;-72
2022/04/10 09:47:54;;;;;;;4.57;1.73;;;16.10;99.90;;;;;;5022000;28;20317;-71
2022/04/10 09:50:32;;;;;;;5.05;1.50;;;16.30;99.90;;;;;;5017819;28;20060;-72
2022/04/10 09:53:05;;;;;;;5.68;1.90;;;16.40;99.90;;;;;;5007706;28;20396;-71
2022/04/10 09:55:39;;;;;;;5.15;1.60;;;16.50;99.90;;;;;;5015719;28;20484;-73
2022/04/10 09:58:10;;;;;;;7.53;1.60;;;16.60;99.90;;;;;;5031801;28;20038;-71
2022/04/10 10:00:40;;;;;;;6.15;1.60;;;16.40;99.90;;;;;;5004205;28;20042;-72
2022/04/10 10:03:08;;;;;;;7.82;1.42;;;16.40;99.90;;;;;;5018284;28;20401;-73
2022/04/10 10:05:35;;;;;;;7.38;1.95;;;16.10;99.90;;;;;;5033263;28;20436;-72
2022/04/10 10:08:02;;;;;;;7.57;1.85;;;16.80;99.90;;;;;;5016072;28;20476;-72
2022/04/10 10:10:33;;;;;;;6.00;1.70;;;17.00;99.80;;;;;;5001305;28;20096;-72
2022/04/10 10:13:04;;;;;;;9.53;1.40;;;16.90;99.10;;;;;;5017641;28;20041;-71
2022/04/10 10:15:29;;;;;;;5.32;1.80;;;16.70;99.40;;;;;;5011405;28;20041;-71
2022/04/10 10:17:56;;;;;;;4.68;1.35;;;16.80;99.40;;;;;;5029674;28;20038;-72
2022/04/10 10:20:23;;;;;;;6.47;1.55;;;16.70;99.40;;;;;;5001210;28;20049;-73
2022/04/10 10:22:50;;;;;;;4.13;1.30;;;16.50;99.40;;;;;;5006455;28;20045;-72
2022/04/10 10:25:24;;;;;;;6.07;1.50;;;17.40;98.70;;;;;;4987378;28;20492;-70
2022/04/10 10:28:22;;;;;;;6.65;1.30;;;17.60;97.30;;;;;;5020099;28;20095;-71
2022/04/10 10:30:52;;;;;;;4.28;1.52;;;18.10;97.30;;;;;;5016875;28;20116;-73
2022/04/10 10:33:22;;;;;;;8.07;1.48;;;17.70;97.40;;;;;;5000615;28;20063;-71
2022/04/10 10:35:55;;;;;;;6.60;1.42;;;17.00;97.90;;;;;;5029404;28;20060;-72
2022/04/10 10:38:27;;;;;;;6.05;1.80;;;17.00;98.40;;;;;;5019148;28;20037;-71
2022/04/10 10:41:15;;;;;;;8.77;1.60;;;17.00;98.30;;;;;;4999086;28;20478;-72
2022/04/10 10:43:41;;;;;;;4.90;1.23;;;16.10;99.30;;;;;;4997631;28;20049;-72
2022/04/10 10:46:21;;;;;;;6.93;1.70;;;16.20;99.10;;;;;;5030727;28;20539;-71
2022/04/10 10:48:50;;;;;;;7.45;1.65;;;16.90;98.80;;;;;;5032351;28;20532;-72
2022/04/10 10:51:16;;;;;;;6.57;1.35;;;17.30;98.00;;;;;;4998099;28;20113;-71
2022/04/10 10:53:44;;;;;;;8.13;1.42;;;17.60;97.80;;;;;;5002810;28;20138;-72
2022/04/10 10:56:28;;;;;;;6.75;1.60;;;18.70;96.50;;;;;;5033257;28;20041;-72
2022/04/10 10:59:15;;;;;;;4.80;1.30;;;17.40;97.10;;;;;;5018808;28;20128;-71
2022/04/10 11:01:52;;;;;;;6.57;1.40;;;17.10;97.50;;;;;;5032865;28;20033;-71
2022/04/10 11:04:20;;;;;;;8.32;1.90;;;17.40;97.80;;;;;;5018118;28;20098;-72
2022/04/10 11:06:48;;;;;;;7.05;1.75;;;16.70;98.60;;;;;;5030824;28;20555;-72
2022/04/10 11:09:28;;;;;;;9.95;2.10;;;16.80;98.50;;;;;;5018253;28;20508;-72
2022/04/10 11:11:59;;;;;;;6.68;1.80;;;17.50;97.70;;;;;;5034313;28;20042;-71
2022/04/10 11:14:45;;;;;;;3.50;1.45;;;17.60;98.30;;;;;;5033244;28;20392;-73
2022/04/10 11:17:19;;;;;;;9.02;1.50;;;18.50;96.90;;;;;;5000645;28;20099;-70
2022/04/10 11:19:56;;;;;;;10.70;2.20;;;19.90;95.60;;;;;;5029696;28;20397;-71
2022/04/10 11:22:30;;;;;;;6.15;1.50;;;19.50;95.40;;;;;;4999808;28;20038;-73
2022/04/10 11:25:09;;;;;;;7.93;1.80;;;17.80;96.60;;;;;;5016010;28;20034;-72
2022/04/10 11:27:48;;;;;;;10.63;1.90;;;17.30;97.30;;;;;;5016920;28;20050;-73
2022/04/10 11:30:25;;;;;;;9.30;2.03;;;18.00;97.20;;;;;;5020085;28;20444;-72
2022/04/10 11:33:05;;;;;;;9.95;1.80;;;18.60;96.40;;;;;;5016852;28;20552;-72
2022/04/10 11:35:33;;;;;;;8.52;1.80;;;19.00;95.80;;;;;;5031656;28;20394;-72
2022/04/10 11:38:00;;;;;;;7.75;1.77;;;18.00;96.40;;;;;;5001288;28;20487;-73
2022/04/10 11:40:29;;;;;;;11.57;3.08;;;17.60;97.40;;;;;;5018780;28;20038;-73
2022/04/10 11:42:57;;;;;;;4.82;1.52;;;16.90;98.00;;;;;;5015059;28;20100;-71
2022/04/10 11:45:25;;;;;;;6.32;1.60;;;17.20;98.20;;;;;;5023507;28;20080;-72
2022/04/10 11:47:52;;;;;;;6.38;1.85;;;17.40;97.80;;;;;;5010537;28;20033;-72
2022/04/10 11:50:19;;;;;;;6.43;1.70;;;17.50;97.70;;;;;;5001200;28;20077;-73
2022/04/10 11:53:07;;;;;;;5.10;1.75;;;16.90;98.00;;;;;;5024406;28;20041;-71
2022/04/10 11:55:35;;;;;;;7.72;2.72;;;17.00;98.10;;;;;;5003604;28;20068;-72
2022/04/10 11:58:19;;;;;;;7.95;2.00;;;17.40;98.20;;;;;;5006198;28;20048;-71
2022/04/10 12:00:52;;;;;;;7.15;1.75;;;17.30;98.00;;;;;;5016678;28;20049;-72
2022/04/10 12:03:21;;;;;;;9.25;1.88;;;17.60;97.70;;;;;;4994869;28;20087;-72
2022/04/10 12:05:47;;;;;;;7.03;2.30;;;17.30;97.20;;;;;;5001889;28;20057;-72
2022/04/10 12:08:14;;;;;;;7.72;1.60;;;16.80;96.90;;;;;;5016324;28;20033;-71
2022/04/10 12:10:41;;;;;;;7.00;1.88;;;17.50;96.70;;;;;;5032658;28;20034;-71
2022/04/10 12:13:10;;;;;;;5.55;1.73;;;17.20;96.80;;;;;;5020194;28;20128;-72
2022/04/10 12:15:36;;;;;;;9.35;1.77;;;18.20;96.20;;;;;;5025997;28;20042;-72
2022/04/10 12:18:13;;;;;;;7.57;1.70;;;18.10;96.10;;;;;;5038433;28;20045;-71
2022/04/10 12:20:42;;;;;;;6.90;1.65;;;18.30;95.70;;;;;;5012883;28;20430;-72
2022/04/10 12:23:19;;;;;;;5.78;1.60;;;18.60;95.60;;;;;;5022567;28;20048;-72
2022/04/10 12:25:46;;;;;;;8.82;1.85;;;18.00;95.70;;;;;;5045144;28;20034;-71
2022/04/10 12:28:12;;;;;;;9.93;1.83;;;18.90;95.40;;;;;;5021604;28;20370;-72
2022/04/10 12:30:39;;;;;;;10.77;2.00;;;19.30;95.20;;;;;;5003725;28;20036;-73
2022/04/10 12:33:06;;;;;;;11.85;2.28;;;19.60;95.00;;;;;;5000821;28;20060;-71
2022/04/10 12:35:43;;;;;;;8.77;2.33;;;20.90;94.10;;;;;;5021457;28;20489;-71
2022/04/10 12:38:12;;;;;;;6.68;1.70;;;20.10;93.80;;;;;;5023833;28;20065;-72
2022/04/10 12:40:39;;;;;;;9.23;1.80;;;19.30;95.30;;;;;;5017983;28;20099;-73
2022/04/10 12:43:06;;;;;;;8.48;2.00;;;19.50;94.90;;;;;;5021990;28;20053;-72
2022/04/10 12:45:35;;;;;;;8.25;1.92;;;19.30;95.20;;;;;;5020351;28;20486;-72
2022/04/10 12:48:02;;;;;;;12.02;3.00;;;19.80;94.60;;;;;;5021485;28;20041;-71
2022/04/10 12:50:29;;;;;;;9.70;2.70;;;19.00;95.10;;;;;;5016739;28;20033;-73
2022/04/10 12:52:56;;;;;;;6.85;2.15;;;19.40;95.30;;;;;;5041290;28;20101;-72